sensor_id;sensor_type;location;lat;lon;timestamp;P1;durP1;ratioP1;P2;durP2;ratioP2
67363;SDS011;54250;45.572;38.086;2024-02-15T00:02:15;14.50;;;9.13;;
67363;SDS011;54250;45.572;38.086;2024-02-15T00:04:41;14.65;;;9.60;;
67363;SDS011;54250;45.572;38.086;2024-02-15T00:07:08;12.95;;;7.78;;
67363;SDS011;54250;45.572;38.086;2024-02-15T00:09:34;17.48;;;12.27;;
67363;SDS011;54250;45.572;38.086;2024-02-15T00:12:00;10.55;;;6.70;;
67363;SDS011;54250;45.572;38.086;2024-02-15T00:14:26;14.07;;;9.63;;
67363;SDS011;54250;45.572;38.086;2024-02-15T00:16:56;12.55;;;8.63;;
67363;SDS011;54250;45.572;38.086;2024-02-15T00:19:22;8.18;;;6.18;;
67363;SDS011;54250;45.572;38.086;2024-02-15T00:21:48;12.52;;;8.43;;
67363;SDS011;54250;45.572;38.086;2024-02-15T00:24:14;19.52;;;12.77;;
67363;SDS011;54250;45.572;38.086;2024-02-15T00:26:40;15.48;;;10.68;;
67363;SDS011;54250;45.572;38.086;2024-02-15T00:29:08;11.15;;;8.68;;
67363;SDS011;54250;45.572;38.086;2024-02-15T00:31:35;18.83;;;11.82;;
67363;SDS011;54250;45.572;38.086;2024-02-15T00:34:01;10.30;;;6.35;;
67363;SDS011;54250;45.572;38.086;2024-02-15T00:36:29;16.13;;;7.90;;
67363;SDS011;54250;45.572;38.086;2024-02-15T00:38:55;10.68;;;7.63;;
67363;SDS011;54250;45.572;38.086;2024-02-15T00:41:21;11.15;;;6.68;;
67363;SDS011;54250;45.572;38.086;2024-02-15T00:43:47;8.60;;;6.10;;
67363;SDS011;54250;45.572;38.086;2024-02-15T00:46:17;8.75;;;6.25;;
67363;SDS011;54250;45.572;38.086;2024-02-15T00:48:43;20.48;;;10.95;;
67363;SDS011;54250;45.572;38.086;2024-02-15T00:51:09;12.10;;;7.63;;
67363;SDS011;54250;45.572;38.086;2024-02-15T00:53:35;16.48;;;10.85;;
67363;SDS011;54250;45.572;38.086;2024-02-15T00:56:01;13.60;;;8.98;;
67363;SDS011;54250;45.572;38.086;2024-02-15T00:58:27;13.60;;;8.48;;
67363;SDS011;54250;45.572;38.086;2024-02-15T01:00:53;12.10;;;8.57;;
67363;SDS011;54250;45.572;38.086;2024-02-15T01:03:19;10.85;;;7.43;;
67363;SDS011;54250;45.572;38.086;2024-02-15T01:05:45;9.05;;;5.85;;
67363;SDS011;54250;45.572;38.086;2024-02-15T01:08:11;9.68;;;4.13;;
67363;SDS011;54250;45.572;38.086;2024-02-15T01:10:37;17.63;;;8.80;;
67363;SDS011;54250;45.572;38.086;2024-02-15T01:13:03;10.55;;;8.35;;
67363;SDS011;54250;45.572;38.086;2024-02-15T01:15:30;18.88;;;11.20;;
67363;SDS011;54250;45.572;38.086;2024-02-15T01:17:55;14.05;;;9.60;;
67363;SDS011;54250;45.572;38.086;2024-02-15T01:20:21;8.48;;;5.53;;
67363;SDS011;54250;45.572;38.086;2024-02-15T01:22:47;10.10;;;6.32;;
67363;SDS011;54250;45.572;38.086;2024-02-15T01:25:15;9.10;;;5.40;;
67363;SDS011;54250;45.572;38.086;2024-02-15T01:27:42;8.43;;;6.10;;
67363;SDS011;54250;45.572;38.086;2024-02-15T01:30:08;11.90;;;6.97;;
67363;SDS011;54250;45.572;38.086;2024-02-15T01:32:35;10.23;;;7.15;;
67363;SDS011;54250;45.572;38.086;2024-02-15T01:35:02;10.48;;;7.00;;
67363;SDS011;54250;45.572;38.086;2024-02-15T01:37:28;11.20;;;7.30;;
67363;SDS011;54250;45.572;38.086;2024-02-15T01:39:55;9.73;;;4.55;;
67363;SDS011;54250;45.572;38.086;2024-02-15T01:42:20;9.10;;;5.03;;
67363;SDS011;54250;45.572;38.086;2024-02-15T01:44:46;9.63;;;6.25;;
67363;SDS011;54250;45.572;38.086;2024-02-15T01:47:15;6.68;;;4.47;;
67363;SDS011;54250;45.572;38.086;2024-02-15T01:49:44;10.25;;;6.57;;
67363;SDS011;54250;45.572;38.086;2024-02-15T01:52:10;8.00;;;6.07;;
67363;SDS011;54250;45.572;38.086;2024-02-15T01:54:39;7.82;;;6.18;;
67363;SDS011;54250;45.572;38.086;2024-02-15T01:57:05;9.40;;;6.05;;
67363;SDS011;54250;45.572;38.086;2024-02-15T01:59:31;6.93;;;4.85;;
67363;SDS011;54250;45.572;38.086;2024-02-15T02:01:57;12.43;;;7.13;;
67363;SDS011;54250;45.572;38.086;2024-02-15T02:04:23;11.30;;;7.88;;
67363;SDS011;54250;45.572;38.086;2024-02-15T02:06:49;17.85;;;9.57;;
67363;SDS011;54250;45.572;38.086;2024-02-15T02:09:16;8.82;;;4.70;;
67363;SDS011;54250;45.572;38.086;2024-02-15T02:11:42;6.55;;;5.00;;
67363;SDS011;54250;45.572;38.086;2024-02-15T02:14:11;7.38;;;5.78;;
67363;SDS011;54250;45.572;38.086;2024-02-15T02:16:37;8.45;;;5.13;;
67363;SDS011;54250;45.572;38.086;2024-02-15T02:19:05;10.77;;;6.85;;
67363;SDS011;54250;45.572;38.086;2024-02-15T02:21:34;8.88;;;5.53;;
67363;SDS011;54250;45.572;38.086;2024-02-15T02:24:04;9.45;;;7.65;;
67363;SDS011;54250;45.572;38.086;2024-02-15T02:26:37;13.73;;;9.45;;
67363;SDS011;54250;45.572;38.086;2024-02-15T02:29:04;17.00;;;9.13;;
67363;SDS011;54250;45.572;38.086;2024-02-15T02:31:36;11.82;;;7.15;;
67363;SDS011;54250;45.572;38.086;2024-02-15T02:34:02;10.60;;;6.55;;
67363;SDS011;54250;45.572;38.086;2024-02-15T02:36:28;11.05;;;7.95;;
67363;SDS011;54250;45.572;38.086;2024-02-15T02:38:55;10.45;;;7.35;;
67363;SDS011;54250;45.572;38.086;2024-02-15T02:41:25;11.88;;;7.05;;
67363;SDS011;54250;45.572;38.086;2024-02-15T02:43:56;12.52;;;7.78;;
67363;SDS011;54250;45.572;38.086;2024-02-15T02:46:23;9.90;;;7.10;;
67363;SDS011;54250;45.572;38.086;2024-02-15T02:48:49;5.85;;;4.78;;
67363;SDS011;54250;45.572;38.086;2024-02-15T02:51:15;10.35;;;3.22;;
67363;SDS011;54250;45.572;38.086;2024-02-15T02:53:41;9.02;;;5.43;;
67363;SDS011;54250;45.572;38.086;2024-02-15T02:56:07;7.93;;;5.00;;
67363;SDS011;54250;45.572;38.086;2024-02-15T02:58:34;4.68;;;3.42;;
67363;SDS011;54250;45.572;38.086;2024-02-15T03:01:00;10.02;;;4.70;;
67363;SDS011;54250;45.572;38.086;2024-02-15T03:03:33;7.00;;;4.95;;
67363;SDS011;54250;45.572;38.086;2024-02-15T03:05:59;13.88;;;8.55;;
67363;SDS011;54250;45.572;38.086;2024-02-15T03:08:26;11.07;;;6.82;;
67363;SDS011;54250;45.572;38.086;2024-02-15T03:10:53;8.68;;;5.68;;
67363;SDS011;54250;45.572;38.086;2024-02-15T03:13:19;9.98;;;6.10;;
67363;SDS011;54250;45.572;38.086;2024-02-15T03:15:45;6.45;;;4.05;;
67363;SDS011;54250;45.572;38.086;2024-02-15T03:18:15;10.38;;;6.75;;
67363;SDS011;54250;45.572;38.086;2024-02-15T03:20:41;12.25;;;5.85;;
67363;SDS011;54250;45.572;38.086;2024-02-15T03:23:07;12.68;;;5.63;;
67363;SDS011;54250;45.572;38.086;2024-02-15T03:25:33;11.43;;;4.97;;
67363;SDS011;54250;45.572;38.086;2024-02-15T03:28:00;16.17;;;7.45;;
67363;SDS011;54250;45.572;38.086;2024-02-15T03:30:30;10.20;;;6.00;;
67363;SDS011;54250;45.572;38.086;2024-02-15T03:32:57;5.20;;;3.20;;
67363;SDS011;54250;45.572;38.086;2024-02-15T03:35:25;4.70;;;3.75;;
67363;SDS011;54250;45.572;38.086;2024-02-15T03:37:53;11.85;;;7.20;;
67363;SDS011;54250;45.572;38.086;2024-02-15T03:40:20;8.00;;;5.68;;
67363;SDS011;54250;45.572;38.086;2024-02-15T03:42:46;16.30;;;6.63;;
67363;SDS011;54250;45.572;38.086;2024-02-15T03:45:13;10.68;;;7.50;;
67363;SDS011;54250;45.572;38.086;2024-02-15T03:47:39;9.15;;;5.93;;
67363;SDS011;54250;45.572;38.086;2024-02-15T03:50:06;8.00;;;5.90;;
67363;SDS011;54250;45.572;38.086;2024-02-15T03:52:36;6.15;;;4.15;;
67363;SDS011;54250;45.572;38.086;2024-02-15T03:55:02;6.93;;;4.22;;
67363;SDS011;54250;45.572;38.086;2024-02-15T03:57:28;7.25;;;5.20;;
67363;SDS011;54250;45.572;38.086;2024-02-15T03:59:54;7.35;;;5.03;;
67363;SDS011;54250;45.572;38.086;2024-02-15T04:02:24;5.40;;;4.35;;
67363;SDS011;54250;45.572;38.086;2024-02-15T04:04:53;7.22;;;5.25;;
67363;SDS011;54250;45.572;38.086;2024-02-15T04:07:20;8.75;;;6.22;;
67363;SDS011;54250;45.572;38.086;2024-02-15T04:09:47;15.40;;;7.47;;
67363;SDS011;54250;45.572;38.086;2024-02-15T04:12:13;11.38;;;6.60;;
67363;SDS011;54250;45.572;38.086;2024-02-15T04:14:40;8.85;;;6.25;;
67363;SDS011;54250;45.572;38.086;2024-02-15T04:17:07;6.68;;;4.45;;
67363;SDS011;54250;45.572;38.086;2024-02-15T04:19:33;10.23;;;7.22;;
67363;SDS011;54250;45.572;38.086;2024-02-15T04:21:59;13.45;;;5.70;;
67363;SDS011;54250;45.572;38.086;2024-02-15T04:24:26;5.40;;;3.60;;
67363;SDS011;54250;45.572;38.086;2024-02-15T04:26:52;8.02;;;4.90;;
67363;SDS011;54250;45.572;38.086;2024-02-15T04:29:19;4.97;;;3.88;;
67363;SDS011;54250;45.572;38.086;2024-02-15T04:31:48;8.32;;;5.63;;
67363;SDS011;54250;45.572;38.086;2024-02-15T04:34:15;9.98;;;5.22;;
67363;SDS011;54250;45.572;38.086;2024-02-15T04:36:43;5.22;;;3.67;;
67363;SDS011;54250;45.572;38.086;2024-02-15T04:39:15;5.05;;;3.15;;
67363;SDS011;54250;45.572;38.086;2024-02-15T04:41:55;9.18;;;4.78;;
67363;SDS011;54250;45.572;38.086;2024-02-15T04:44:21;8.77;;;5.30;;
67363;SDS011;54250;45.572;38.086;2024-02-15T04:46:48;10.23;;;6.10;;
67363;SDS011;54250;45.572;38.086;2024-02-15T04:49:17;8.48;;;4.80;;
67363;SDS011;54250;45.572;38.086;2024-02-15T04:51:44;9.70;;;4.60;;
67363;SDS011;54250;45.572;38.086;2024-02-15T04:54:10;6.82;;;3.85;;
67363;SDS011;54250;45.572;38.086;2024-02-15T04:56:42;8.48;;;6.05;;
67363;SDS011;54250;45.572;38.086;2024-02-15T04:59:11;8.35;;;6.05;;
67363;SDS011;54250;45.572;38.086;2024-02-15T05:01:40;5.97;;;3.65;;
67363;SDS011;54250;45.572;38.086;2024-02-15T05:04:08;11.23;;;5.32;;
67363;SDS011;54250;45.572;38.086;2024-02-15T05:06:37;10.95;;;6.15;;
67363;SDS011;54250;45.572;38.086;2024-02-15T05:09:04;9.40;;;5.93;;
67363;SDS011;54250;45.572;38.086;2024-02-15T05:11:36;3.83;;;2.67;;
67363;SDS011;54250;45.572;38.086;2024-02-15T05:14:03;8.43;;;5.10;;
67363;SDS011;54250;45.572;38.086;2024-02-15T05:16:32;9.00;;;5.43;;
67363;SDS011;54250;45.572;38.086;2024-02-15T05:18:58;6.45;;;4.20;;
67363;SDS011;54250;45.572;38.086;2024-02-15T05:21:25;9.90;;;3.17;;
67363;SDS011;54250;45.572;38.086;2024-02-15T05:23:51;8.13;;;4.00;;
67363;SDS011;54250;45.572;38.086;2024-02-15T05:26:18;10.85;;;6.18;;
67363;SDS011;54250;45.572;38.086;2024-02-15T05:28:49;12.27;;;7.05;;
67363;SDS011;54250;45.572;38.086;2024-02-15T05:31:16;8.15;;;5.63;;
67363;SDS011;54250;45.572;38.086;2024-02-15T05:33:48;9.38;;;5.70;;
67363;SDS011;54250;45.572;38.086;2024-02-15T05:36:15;9.70;;;6.18;;
67363;SDS011;54250;45.572;38.086;2024-02-15T05:38:46;9.32;;;5.85;;
67363;SDS011;54250;45.572;38.086;2024-02-15T05:41:13;5.05;;;3.22;;
67363;SDS011;54250;45.572;38.086;2024-02-15T05:43:40;9.00;;;5.90;;
67363;SDS011;54250;45.572;38.086;2024-02-15T05:46:09;9.00;;;5.68;;
67363;SDS011;54250;45.572;38.086;2024-02-15T05:48:36;7.20;;;3.97;;
67363;SDS011;54250;45.572;38.086;2024-02-15T05:51:02;11.20;;;6.90;;
67363;SDS011;54250;45.572;38.086;2024-02-15T05:53:30;7.07;;;4.97;;
67363;SDS011;54250;45.572;38.086;2024-02-15T05:55:56;13.18;;;6.60;;
67363;SDS011;54250;45.572;38.086;2024-02-15T05:58:25;5.75;;;4.50;;
67363;SDS011;54250;45.572;38.086;2024-02-15T06:00:51;10.43;;;6.50;;
67363;SDS011;54250;45.572;38.086;2024-02-15T06:03:18;3.53;;;2.03;;
67363;SDS011;54250;45.572;38.086;2024-02-15T06:05:51;9.57;;;6.68;;
67363;SDS011;54250;45.572;38.086;2024-02-15T06:08:24;4.68;;;2.90;;
67363;SDS011;54250;45.572;38.086;2024-02-15T06:10:55;4.70;;;2.28;;
67363;SDS011;54250;45.572;38.086;2024-02-15T06:13:25;10.02;;;6.05;;
67363;SDS011;54250;45.572;38.086;2024-02-15T06:15:52;8.68;;;4.47;;
67363;SDS011;54250;45.572;38.086;2024-02-15T06:18:26;12.10;;;6.07;;
67363;SDS011;54250;45.572;38.086;2024-02-15T06:20:54;7.43;;;3.97;;
67363;SDS011;54250;45.572;38.086;2024-02-15T06:23:27;9.57;;;5.30;;
67363;SDS011;54250;45.572;38.086;2024-02-15T06:25:54;10.18;;;4.30;;
67363;SDS011;54250;45.572;38.086;2024-02-15T06:28:23;7.05;;;3.13;;
67363;SDS011;54250;45.572;38.086;2024-02-15T06:31:07;8.02;;;4.97;;
67363;SDS011;54250;45.572;38.086;2024-02-15T06:33:52;9.52;;;5.82;;
67363;SDS011;54250;45.572;38.086;2024-02-15T06:36:40;13.07;;;5.80;;
67363;SDS011;54250;45.572;38.086;2024-02-15T06:39:35;7.75;;;5.13;;
67363;SDS011;54250;45.572;38.086;2024-02-15T06:42:11;10.27;;;5.72;;
67363;SDS011;54250;45.572;38.086;2024-02-15T06:44:43;10.50;;;6.50;;
67363;SDS011;54250;45.572;38.086;2024-02-15T06:47:10;8.93;;;5.15;;
67363;SDS011;54250;45.572;38.086;2024-02-15T06:49:40;11.73;;;3.92;;
67363;SDS011;54250;45.572;38.086;2024-02-15T06:52:07;10.05;;;4.78;;
67363;SDS011;54250;45.572;38.086;2024-02-15T06:54:34;6.43;;;2.80;;
67363;SDS011;54250;45.572;38.086;2024-02-15T06:57:03;8.40;;;5.20;;
67363;SDS011;54250;45.572;38.086;2024-02-15T06:59:30;9.85;;;6.53;;
67363;SDS011;54250;45.572;38.086;2024-02-15T07:02:00;6.82;;;4.22;;
67363;SDS011;54250;45.572;38.086;2024-02-15T07:04:27;6.15;;;4.00;;
67363;SDS011;54250;45.572;38.086;2024-02-15T07:06:53;5.80;;;3.63;;
67363;SDS011;54250;45.572;38.086;2024-02-15T07:09:20;7.72;;;4.38;;
67363;SDS011;54250;45.572;38.086;2024-02-15T07:11:48;4.72;;;3.58;;
67363;SDS011;54250;45.572;38.086;2024-02-15T07:14:14;7.63;;;3.63;;
67363;SDS011;54250;45.572;38.086;2024-02-15T07:16:44;5.57;;;3.53;;
67363;SDS011;54250;45.572;38.086;2024-02-15T07:19:11;3.35;;;2.22;;
67363;SDS011;54250;45.572;38.086;2024-02-15T07:21:38;8.13;;;4.97;;
67363;SDS011;54250;45.572;38.086;2024-02-15T07:24:04;7.10;;;4.20;;
67363;SDS011;54250;45.572;38.086;2024-02-15T07:26:31;4.25;;;2.75;;
67363;SDS011;54250;45.572;38.086;2024-02-15T07:28:58;4.50;;;3.22;;
67363;SDS011;54250;45.572;38.086;2024-02-15T07:31:27;8.07;;;2.97;;
67363;SDS011;54250;45.572;38.086;2024-02-15T07:33:54;4.90;;;3.10;;
67363;SDS011;54250;45.572;38.086;2024-02-15T07:36:20;4.25;;;3.05;;
67363;SDS011;54250;45.572;38.086;2024-02-15T07:38:53;7.40;;;3.63;;
67363;SDS011;54250;45.572;38.086;2024-02-15T07:41:22;5.40;;;2.92;;
67363;SDS011;54250;45.572;38.086;2024-02-15T07:43:49;3.22;;;2.47;;
67363;SDS011;54250;45.572;38.086;2024-02-15T07:46:16;5.50;;;3.50;;
67363;SDS011;54250;45.572;38.086;2024-02-15T07:48:42;4.32;;;2.28;;
67363;SDS011;54250;45.572;38.086;2024-02-15T07:51:16;4.47;;;2.95;;
67363;SDS011;54250;45.572;38.086;2024-02-15T07:53:45;4.47;;;3.28;;
67363;SDS011;54250;45.572;38.086;2024-02-15T07:56:12;2.45;;;1.58;;
67363;SDS011;54250;45.572;38.086;2024-02-15T07:58:39;2.83;;;1.88;;
67363;SDS011;54250;45.572;38.086;2024-02-15T08:01:13;3.92;;;2.15;;
67363;SDS011;54250;45.572;38.086;2024-02-15T08:03:39;4.30;;;2.65;;
67363;SDS011;54250;45.572;38.086;2024-02-15T08:06:11;3.67;;;2.65;;
67363;SDS011;54250;45.572;38.086;2024-02-15T08:08:38;20.23;;;8.73;;
67363;SDS011;54250;45.572;38.086;2024-02-15T08:11:07;6.78;;;3.80;;
67363;SDS011;54250;45.572;38.086;2024-02-15T08:13:46;12.63;;;6.15;;
67363;SDS011;54250;45.572;38.086;2024-02-15T08:16:21;11.20;;;6.65;;
67363;SDS011;54250;45.572;38.086;2024-02-15T08:18:51;14.20;;;7.32;;
67363;SDS011;54250;45.572;38.086;2024-02-15T08:21:32;6.85;;;3.03;;
67363;SDS011;54250;45.572;38.086;2024-02-15T08:24:01;5.45;;;3.67;;
67363;SDS011;54250;45.572;38.086;2024-02-15T08:26:37;6.32;;;3.70;;
67363;SDS011;54250;45.572;38.086;2024-02-15T08:29:04;7.57;;;3.42;;
67363;SDS011;54250;45.572;38.086;2024-02-15T08:31:31;6.55;;;2.42;;
67363;SDS011;54250;45.572;38.086;2024-02-15T08:33:59;5.00;;;3.00;;
67363;SDS011;54250;45.572;38.086;2024-02-15T08:36:26;4.63;;;2.90;;
67363;SDS011;54250;45.572;38.086;2024-02-15T08:38:52;4.80;;;1.83;;
67363;SDS011;54250;45.572;38.086;2024-02-15T08:41:19;2.72;;;1.95;;
67363;SDS011;54250;45.572;38.086;2024-02-15T08:43:46;3.17;;;2.10;;
67363;SDS011;54250;45.572;38.086;2024-02-15T08:46:15;7.72;;;3.88;;
67363;SDS011;54250;45.572;38.086;2024-02-15T08:48:41;5.88;;;3.80;;
67363;SDS011;54250;45.572;38.086;2024-02-15T08:51:08;3.10;;;2.72;;
67363;SDS011;54250;45.572;38.086;2024-02-15T08:53:34;3.63;;;2.80;;
67363;SDS011;54250;45.572;38.086;2024-02-15T08:56:04;4.32;;;2.67;;
67363;SDS011;54250;45.572;38.086;2024-02-15T08:58:30;4.45;;;2.38;;
67363;SDS011;54250;45.572;38.086;2024-02-15T09:00:57;5.45;;;2.72;;
67363;SDS011;54250;45.572;38.086;2024-02-15T09:03:23;3.78;;;2.67;;
67363;SDS011;54250;45.572;38.086;2024-02-15T09:05:50;6.82;;;3.88;;
67363;SDS011;54250;45.572;38.086;2024-02-15T09:08:16;5.47;;;3.22;;
67363;SDS011;54250;45.572;38.086;2024-02-15T09:10:49;4.28;;;2.88;;
67363;SDS011;54250;45.572;38.086;2024-02-15T09:13:15;3.95;;;2.45;;
67363;SDS011;54250;45.572;38.086;2024-02-15T09:15:42;4.22;;;2.72;;
67363;SDS011;54250;45.572;38.086;2024-02-15T09:18:08;3.80;;;2.70;;
67363;SDS011;54250;45.572;38.086;2024-02-15T09:20:37;5.10;;;3.28;;
67363;SDS011;54250;45.572;38.086;2024-02-15T09:23:05;5.10;;;2.65;;
67363;SDS011;54250;45.572;38.086;2024-02-15T09:25:36;5.47;;;3.30;;
67363;SDS011;54250;45.572;38.086;2024-02-15T09:28:03;12.18;;;3.28;;
67363;SDS011;54250;45.572;38.086;2024-02-15T09:30:30;4.65;;;3.00;;
67363;SDS011;54250;45.572;38.086;2024-02-15T09:33:01;1.48;;;1.38;;
67363;SDS011;54250;45.572;38.086;2024-02-15T09:35:31;6.40;;;3.20;;
67363;SDS011;54250;45.572;38.086;2024-02-15T09:37:57;3.30;;;1.80;;
67363;SDS011;54250;45.572;38.086;2024-02-15T09:40:27;3.42;;;2.55;;
67363;SDS011;54250;45.572;38.086;2024-02-15T09:42:54;4.78;;;2.35;;
67363;SDS011;54250;45.572;38.086;2024-02-15T09:45:20;3.15;;;2.08;;
67363;SDS011;54250;45.572;38.086;2024-02-15T09:47:50;9.38;;;3.05;;
67363;SDS011;54250;45.572;38.086;2024-02-15T09:50:18;2.92;;;2.38;;
67363;SDS011;54250;45.572;38.086;2024-02-15T09:52:44;5.18;;;2.83;;
67363;SDS011;54250;45.572;38.086;2024-02-15T09:55:11;4.47;;;2.90;;
67363;SDS011;54250;45.572;38.086;2024-02-15T09:57:41;3.28;;;2.42;;
67363;SDS011;54250;45.572;38.086;2024-02-15T10:00:08;6.80;;;2.05;;
67363;SDS011;54250;45.572;38.086;2024-02-15T10:02:47;3.03;;;2.40;;
67363;SDS011;54250;45.572;38.086;2024-02-15T10:05:16;3.20;;;2.67;;
67363;SDS011;54250;45.572;38.086;2024-02-15T10:07:43;1.92;;;1.42;;
67363;SDS011;54250;45.572;38.086;2024-02-15T10:10:17;1.73;;;1.35;;
67363;SDS011;54250;45.572;38.086;2024-02-15T10:18:06;2.88;;;1.80;;
67363;SDS011;54250;45.572;38.086;2024-02-15T10:20:35;3.35;;;2.38;;
67363;SDS011;54250;45.572;38.086;2024-02-15T10:25:43;3.55;;;2.75;;
67363;SDS011;54250;45.572;38.086;2024-02-15T10:28:10;2.70;;;2.30;;
67363;SDS011;54250;45.572;38.086;2024-02-15T10:30:38;3.45;;;2.25;;
67363;SDS011;54250;45.572;38.086;2024-02-15T10:33:18;5.65;;;2.38;;
67363;SDS011;54250;45.572;38.086;2024-02-15T10:36:08;3.92;;;2.80;;
67363;SDS011;54250;45.572;38.086;2024-02-15T10:38:36;4.35;;;3.10;;
67363;SDS011;54250;45.572;38.086;2024-02-15T10:41:03;7.22;;;3.65;;
67363;SDS011;54250;45.572;38.086;2024-02-15T10:43:30;3.67;;;2.83;;
67363;SDS011;54250;45.572;38.086;2024-02-15T10:45:58;4.22;;;2.75;;
67363;SDS011;54250;45.572;38.086;2024-02-15T10:48:26;7.30;;;3.30;;
67363;SDS011;54250;45.572;38.086;2024-02-15T10:51:03;4.57;;;2.30;;
67363;SDS011;54250;45.572;38.086;2024-02-15T10:53:32;5.70;;;2.97;;
67363;SDS011;54250;45.572;38.086;2024-02-15T10:56:22;3.03;;;2.47;;
67363;SDS011;54250;45.572;38.086;2024-02-15T10:59:11;8.05;;;2.55;;
67363;SDS011;54250;45.572;38.086;2024-02-15T11:01:42;5.03;;;3.10;;
67363;SDS011;54250;45.572;38.086;2024-02-15T11:04:12;5.20;;;3.70;;
67363;SDS011;54250;45.572;38.086;2024-02-15T11:06:42;5.97;;;2.65;;
67363;SDS011;54250;45.572;38.086;2024-02-15T11:09:10;4.32;;;2.58;;
67363;SDS011;54250;45.572;38.086;2024-02-15T11:11:40;7.03;;;1.83;;
67363;SDS011;54250;45.572;38.086;2024-02-15T11:16:55;3.92;;;2.92;;
67363;SDS011;54250;45.572;38.086;2024-02-15T11:19:43;4.30;;;2.88;;
67363;SDS011;54250;45.572;38.086;2024-02-15T11:22:13;5.28;;;3.22;;
67363;SDS011;54250;45.572;38.086;2024-02-15T11:24:46;5.50;;;2.60;;
67363;SDS011;54250;45.572;38.086;2024-02-15T11:27:13;7.13;;;3.95;;
67363;SDS011;54250;45.572;38.086;2024-02-15T11:32:47;4.30;;;2.70;;
67363;SDS011;54250;45.572;38.086;2024-02-15T11:40:27;3.35;;;2.13;;
67363;SDS011;54250;45.572;38.086;2024-02-15T11:42:55;4.30;;;2.10;;
67363;SDS011;54250;45.572;38.086;2024-02-15T11:45:25;3.83;;;2.50;;
67363;SDS011;54250;45.572;38.086;2024-02-15T11:47:58;6.22;;;4.57;;
67363;SDS011;54250;45.572;38.086;2024-02-15T11:50:27;6.28;;;4.28;;
67363;SDS011;54250;45.572;38.086;2024-02-15T11:53:01;6.53;;;3.55;;
67363;SDS011;54250;45.572;38.086;2024-02-15T11:55:31;10.88;;;3.67;;
67363;SDS011;54250;45.572;38.086;2024-02-15T11:57:58;5.88;;;3.38;;
67363;SDS011;54250;45.572;38.086;2024-02-15T12:00:47;3.53;;;2.55;;
67363;SDS011;54250;45.572;38.086;2024-02-15T12:06:18;11.43;;;3.90;;
67363;SDS011;54250;45.572;38.086;2024-02-15T12:09:02;10.57;;;4.38;;
67363;SDS011;54250;45.572;38.086;2024-02-15T12:11:46;5.05;;;3.25;;
67363;SDS011;54250;45.572;38.086;2024-02-15T12:14:31;5.93;;;2.97;;
67363;SDS011;54250;45.572;38.086;2024-02-15T12:17:15;6.57;;;3.75;;
67363;SDS011;54250;45.572;38.086;2024-02-15T12:20:01;7.22;;;3.38;;
67363;SDS011;54250;45.572;38.086;2024-02-15T12:22:45;3.97;;;2.75;;
67363;SDS011;54250;45.572;38.086;2024-02-15T12:25:14;6.95;;;3.35;;
67363;SDS011;54250;45.572;38.086;2024-02-15T12:27:41;7.80;;;4.25;;
67363;SDS011;54250;45.572;38.086;2024-02-15T12:32:41;7.60;;;4.88;;
67363;SDS011;54250;45.572;38.086;2024-02-15T12:35:10;9.20;;;5.00;;
67363;SDS011;54250;45.572;38.086;2024-02-15T12:40:34;10.80;;;6.25;;
67363;SDS011;54250;45.572;38.086;2024-02-15T12:43:02;5.68;;;3.70;;
67363;SDS011;54250;45.572;38.086;2024-02-15T12:45:31;7.13;;;4.03;;
67363;SDS011;54250;45.572;38.086;2024-02-15T12:48:05;5.55;;;3.33;;
67363;SDS011;54250;45.572;38.086;2024-02-15T12:50:32;3.35;;;1.80;;
67363;SDS011;54250;45.572;38.086;2024-02-15T12:52:59;8.10;;;4.85;;
67363;SDS011;54250;45.572;38.086;2024-02-15T12:55:31;3.83;;;3.15;;
67363;SDS011;54250;45.572;38.086;2024-02-15T12:58:02;9.32;;;5.10;;
67363;SDS011;54250;45.572;38.086;2024-02-15T13:00:30;4.63;;;3.15;;
67363;SDS011;54250;45.572;38.086;2024-02-15T13:02:59;10.23;;;3.38;;
67363;SDS011;54250;45.572;38.086;2024-02-15T13:05:29;8.63;;;3.78;;
67363;SDS011;54250;45.572;38.086;2024-02-15T13:07:56;5.07;;;2.92;;
67363;SDS011;54250;45.572;38.086;2024-02-15T13:10:23;6.07;;;3.60;;
67363;SDS011;54250;45.572;38.086;2024-02-15T13:12:51;5.25;;;3.17;;
67363;SDS011;54250;45.572;38.086;2024-02-15T13:15:18;4.00;;;2.55;;
67363;SDS011;54250;45.572;38.086;2024-02-15T13:17:47;3.13;;;2.33;;
67363;SDS011;54250;45.572;38.086;2024-02-15T13:20:17;6.18;;;3.05;;
67363;SDS011;54250;45.572;38.086;2024-02-15T13:22:47;2.67;;;2.10;;
67363;SDS011;54250;45.572;38.086;2024-02-15T13:25:13;3.63;;;2.40;;
67363;SDS011;54250;45.572;38.086;2024-02-15T13:27:42;4.78;;;3.08;;
67363;SDS011;54250;45.572;38.086;2024-02-15T13:30:08;6.05;;;3.13;;
67363;SDS011;54250;45.572;38.086;2024-02-15T13:32:38;6.60;;;2.97;;
67363;SDS011;54250;45.572;38.086;2024-02-15T13:35:09;5.75;;;2.83;;
67363;SDS011;54250;45.572;38.086;2024-02-15T13:37:48;7.33;;;3.47;;
67363;SDS011;54250;45.572;38.086;2024-02-15T13:40:20;4.03;;;2.47;;
67363;SDS011;54250;45.572;38.086;2024-02-15T13:42:50;5.30;;;2.88;;
67363;SDS011;54250;45.572;38.086;2024-02-15T13:45:30;4.55;;;2.70;;
67363;SDS011;54250;45.572;38.086;2024-02-15T13:48:00;2.65;;;2.22;;
67363;SDS011;54250;45.572;38.086;2024-02-15T13:50:33;4.30;;;2.75;;
67363;SDS011;54250;45.572;38.086;2024-02-15T13:52:59;4.25;;;2.88;;
67363;SDS011;54250;45.572;38.086;2024-02-15T13:55:26;4.63;;;2.83;;
67363;SDS011;54250;45.572;38.086;2024-02-15T13:57:52;4.25;;;2.15;;
67363;SDS011;54250;45.572;38.086;2024-02-15T14:00:19;3.88;;;2.53;;
67363;SDS011;54250;45.572;38.086;2024-02-15T14:05:15;3.30;;;2.15;;
67363;SDS011;54250;45.572;38.086;2024-02-15T14:07:48;4.35;;;2.90;;
67363;SDS011;54250;45.572;38.086;2024-02-15T14:10:19;4.05;;;2.65;;
67363;SDS011;54250;45.572;38.086;2024-02-15T14:12:46;5.22;;;3.15;;
67363;SDS011;54250;45.572;38.086;2024-02-15T14:15:16;7.45;;;2.70;;
67363;SDS011;54250;45.572;38.086;2024-02-15T14:17:42;5.82;;;3.40;;
67363;SDS011;54250;45.572;38.086;2024-02-15T14:20:12;9.40;;;4.28;;
67363;SDS011;54250;45.572;38.086;2024-02-15T14:22:45;4.32;;;3.22;;
67363;SDS011;54250;45.572;38.086;2024-02-15T14:25:15;5.30;;;4.18;;
67363;SDS011;54250;45.572;38.086;2024-02-15T14:27:41;4.95;;;3.40;;
67363;SDS011;54250;45.572;38.086;2024-02-15T14:30:10;5.18;;;2.90;;
67363;SDS011;54250;45.572;38.086;2024-02-15T14:32:55;9.30;;;5.00;;
67363;SDS011;54250;45.572;38.086;2024-02-15T14:35:33;7.32;;;4.25;;
67363;SDS011;54250;45.572;38.086;2024-02-15T14:38:03;3.60;;;2.28;;
67363;SDS011;54250;45.572;38.086;2024-02-15T14:40:42;3.38;;;2.63;;
67363;SDS011;54250;45.572;38.086;2024-02-15T14:43:11;5.82;;;3.45;;
67363;SDS011;54250;45.572;38.086;2024-02-15T14:45:40;7.82;;;4.20;;
67363;SDS011;54250;45.572;38.086;2024-02-15T14:48:07;8.30;;;4.28;;
67363;SDS011;54250;45.572;38.086;2024-02-15T14:50:38;9.70;;;4.28;;
67363;SDS011;54250;45.572;38.086;2024-02-15T14:53:04;6.18;;;3.28;;
67363;SDS011;54250;45.572;38.086;2024-02-15T14:55:33;5.80;;;4.10;;
67363;SDS011;54250;45.572;38.086;2024-02-15T14:57:59;8.00;;;4.50;;
67363;SDS011;54250;45.572;38.086;2024-02-15T15:00:26;7.13;;;4.45;;
67363;SDS011;54250;45.572;38.086;2024-02-15T15:02:52;8.27;;;4.28;;
67363;SDS011;54250;45.572;38.086;2024-02-15T15:05:22;8.70;;;5.03;;
67363;SDS011;54250;45.572;38.086;2024-02-15T15:08:07;10.40;;;4.47;;
67363;SDS011;54250;45.572;38.086;2024-02-15T15:10:52;13.18;;;6.85;;
67363;SDS011;54250;45.572;38.086;2024-02-15T15:13:38;8.30;;;5.43;;